sensor_id;sensor_type;location;lat;lon;timestamp;pressure;altitude;pressure_sealevel;temperature;humidity
15229;BME280;7717;47.792;12.076;2023-02-16T00:01:54;97245.34;;;-3.04;nan
15229;BME280;7717;47.792;12.076;2023-02-16T00:04:25;97239.03;;;-3.11;nan
15229;BME280;7717;47.792;12.076;2023-02-16T00:06:51;97241.63;;;-3.23;nan
15229;BME280;7717;47.792;12.076;2023-02-16T00:09:17;97242.88;;;-3.16;nan
15229;BME280;7717;47.792;12.076;2023-02-16T00:11:43;97244.78;;;-3.26;nan
15229;BME280;7717;47.792;12.076;2023-02-16T00:14:28;97242.47;;;-3.22;nan
15229;BME280;7717;47.792;12.076;2023-02-16T00:16:55;97239.72;;;-3.14;nan
15229;BME280;7717;47.792;12.076;2023-02-16T00:19:24;97237.72;;;-3.06;nan
15229;BME280;7717;47.792;12.076;2023-02-16T00:21:52;97230.59;;;-3.00;nan
15229;BME280;7717;47.792;12.076;2023-02-16T00:24:18;97246.44;;;-2.87;nan
15229;BME280;7717;47.792;12.076;2023-02-16T00:26:44;97243.44;;;-2.95;nan
15229;BME280;7717;47.792;12.076;2023-02-16T00:29:35;97248.34;;;-2.83;nan
15229;BME280;7717;47.792;12.076;2023-02-16T00:32:02;97227.84;;;-2.78;nan
15229;BME280;7717;47.792;12.076;2023-02-16T00:34:38;97231.75;;;-2.81;nan
15229;BME280;7717;47.792;12.076;2023-02-16T00:37:07;97236.97;;;-2.92;nan
15229;BME280;7717;47.792;12.076;2023-02-16T00:39:33;97242.75;;;-2.93;nan
15229;BME280;7717;47.792;12.076;2023-02-16T00:42:04;97233.69;;;-2.77;nan
15229;BME280;7717;47.792;12.076;2023-02-16T00:44:40;97230.41;;;-2.90;nan
15229;BME280;7717;47.792;12.076;2023-02-16T00:47:19;97229.75;;;-2.87;nan
15229;BME280;7717;47.792;12.076;2023-02-16T00:49:51;97237.94;;;-2.90;nan
15229;BME280;7717;47.792;12.076;2023-02-16T00:52:36;97231.72;;;-3.08;nan
15229;BME280;7717;47.792;12.076;2023-02-16T00:55:07;97238.78;;;-3.02;nan
15229;BME280;7717;47.792;12.076;2023-02-16T00:57:37;97235.13;;;-3.08;nan
15229;BME280;7717;47.792;12.076;2023-02-16T01:00:18;97213.97;;;-3.24;nan
15229;BME280;7717;47.792;12.076;2023-02-16T01:02:46;97241.75;;;-3.08;nan
15229;BME280;7717;47.792;12.076;2023-02-16T01:05:11;97235.16;;;-3.33;nan
15229;BME280;7717;47.792;12.076;2023-02-16T01:07:37;97231.66;;;-3.35;nan
15229;BME280;7717;47.792;12.076;2023-02-16T01:10:22;97238.06;;;-3.27;nan
15229;BME280;7717;47.792;12.076;2023-02-16T01:13:06;97222.75;;;-3.31;nan
15229;BME280;7717;47.792;12.076;2023-02-16T01:15:32;97238.34;;;-3.22;nan
15229;BME280;7717;47.792;12.076;2023-02-16T01:17:57;97236.50;;;-3.24;nan
15229;BME280;7717;47.792;12.076;2023-02-16T01:20:24;97238.84;;;-3.14;nan
15229;BME280;7717;47.792;12.076;2023-02-16T01:22:50;97233.66;;;-3.04;nan
15229;BME280;7717;47.792;12.076;2023-02-16T01:25:16;97218.78;;;-3.28;nan
15229;BME280;7717;47.792;12.076;2023-02-16T01:27:42;97233.06;;;-3.13;nan
15229;BME280;7717;47.792;12.076;2023-02-16T01:30:16;97230.91;;;-3.20;nan
15229;BME280;7717;47.792;12.076;2023-02-16T01:32:42;97221.78;;;-3.20;nan
15229;BME280;7717;47.792;12.076;2023-02-16T01:35:08;97220.44;;;-3.28;nan
15229;BME280;7717;47.792;12.076;2023-02-16T01:37:34;97220.78;;;-3.35;nan
15229;BME280;7717;47.792;12.076;2023-02-16T01:39:59;97222.13;;;-3.40;nan
15229;BME280;7717;47.792;12.076;2023-02-16T01:42:46;97202.34;;;-3.49;nan
15229;BME280;7717;47.792;12.076;2023-02-16T01:45:32;97208.19;;;-3.37;nan
15229;BME280;7717;47.792;12.076;2023-02-16T01:48:03;97210.69;;;-3.37;nan
15229;BME280;7717;47.792;12.076;2023-02-16T01:50:40;97202.66;;;-3.45;nan
15229;BME280;7717;47.792;12.076;2023-02-16T01:53:20;97187.69;;;-3.56;nan
15229;BME280;7717;47.792;12.076;2023-02-16T01:55:50;97190.19;;;-3.56;nan
15229;BME280;7717;47.792;12.076;2023-02-16T02:03:22;97183.13;;;-3.75;nan
15229;BME280;7717;47.792;12.076;2023-02-16T02:06:17;97176.50;;;-3.75;nan
15229;BME280;7717;47.792;12.076;2023-02-16T02:08:53;97178.94;;;-3.63;nan
15229;BME280;7717;47.792;12.076;2023-02-16T02:11:53;97177.28;;;-3.63;nan
15229;BME280;7717;47.792;12.076;2023-02-16T02:14:26;97175.38;;;-3.53;nan
15229;BME280;7717;47.792;12.076;2023-02-16T02:17:06;97155.28;;;-3.80;nan
15229;BME280;7717;47.792;12.076;2023-02-16T02:22:58;97171.91;;;-3.69;nan
15229;BME280;7717;47.792;12.076;2023-02-16T02:37:37;97162.03;;;-3.79;nan
15229;BME280;7717;47.792;12.076;2023-02-16T02:45:17;97157.38;;;-3.86;nan
15229;BME280;7717;47.792;12.076;2023-02-16T02:47:46;97160.00;;;-3.85;nan
15229;BME280;7717;47.792;12.076;2023-02-16T02:50:39;97151.00;;;-3.94;nan
15229;BME280;7717;47.792;12.076;2023-02-16T02:53:10;97163.38;;;-3.84;nan
15229;BME280;7717;47.792;12.076;2023-02-16T02:55:40;97171.84;;;-3.82;nan
15229;BME280;7717;47.792;12.076;2023-02-16T02:58:26;97172.88;;;-3.92;nan
15229;BME280;7717;47.792;12.076;2023-02-16T03:01:13;97177.56;;;-3.96;nan
15229;BME280;7717;47.792;12.076;2023-02-16T03:03:46;97177.97;;;-3.90;nan
15229;BME280;7717;47.792;12.076;2023-02-16T03:06:25;97173.41;;;-3.96;nan
15229;BME280;7717;47.792;12.076;2023-02-16T03:08:59;97184.00;;;-3.75;nan
15229;BME280;7717;47.792;12.076;2023-02-16T03:11:27;97181.84;;;-3.82;nan
15229;BME280;7717;47.792;12.076;2023-02-16T03:14:32;97188.69;;;-3.54;nan
15229;BME280;7717;47.792;12.076;2023-02-16T03:17:20;97193.91;;;-3.51;nan
15229;BME280;7717;47.792;12.076;2023-02-16T03:20:07;97193.91;;;-3.51;nan
15229;BME280;7717;47.792;12.076;2023-02-16T03:22:55;97209.56;;;-3.54;nan
15229;BME280;7717;47.792;12.076;2023-02-16T03:25:43;97209.81;;;-3.63;nan
15229;BME280;7717;47.792;12.076;2023-02-16T03:28:29;97206.75;;;-3.58;nan
15229;BME280;7717;47.792;12.076;2023-02-16T03:31:21;97213.13;;;-3.50;nan
15229;BME280;7717;47.792;12.076;2023-02-16T03:33:49;97203.75;;;-3.66;nan
15229;BME280;7717;47.792;12.076;2023-02-16T03:36:20;97205.72;;;-3.74;nan
15229;BME280;7717;47.792;12.076;2023-02-16T03:38:46;97202.56;;;-3.96;nan
15229;BME280;7717;47.792;12.076;2023-02-16T03:41:12;97219.47;;;-3.81;nan
15229;BME280;7717;47.792;12.076;2023-02-16T03:43:37;97200.91;;;-3.96;nan
15229;BME280;7717;47.792;12.076;2023-02-16T03:46:03;97224.50;;;-3.92;nan
15229;BME280;7717;47.792;12.076;2023-02-16T03:48:28;97217.56;;;-3.96;nan
15229;BME280;7717;47.792;12.076;2023-02-16T03:50:53;97221.78;;;-3.95;nan
15229;BME280;7717;47.792;12.076;2023-02-16T03:53:19;97235.94;;;-3.96;nan
15229;BME280;7717;47.792;12.076;2023-02-16T03:55:46;97227.59;;;-4.08;nan
15229;BME280;7717;47.792;12.076;2023-02-16T03:58:14;97236.09;;;-4.06;nan
15229;BME280;7717;47.792;12.076;2023-02-16T04:00:40;97237.91;;;-4.04;nan
15229;BME280;7717;47.792;12.076;2023-02-16T04:03:06;97241.38;;;-4.02;nan
15229;BME280;7717;47.792;12.076;2023-02-16T04:05:33;97242.94;;;-4.16;nan
15229;BME280;7717;47.792;12.076;2023-02-16T04:07:58;97245.56;;;-4.14;nan
15229;BME280;7717;47.792;12.076;2023-02-16T04:10:24;97247.19;;;-4.26;nan
15229;BME280;7717;47.792;12.076;2023-02-16T04:12:49;97232.00;;;-4.29;nan
15229;BME280;7717;47.792;12.076;2023-02-16T04:15:18;97252.69;;;-4.07;nan
15229;BME280;7717;47.792;12.076;2023-02-16T04:17:44;97248.66;;;-4.05;nan
15229;BME280;7717;47.792;12.076;2023-02-16T04:20:12;97243.59;;;-4.18;nan
15229;BME280;7717;47.792;12.076;2023-02-16T04:22:39;97247.72;;;-4.19;nan
15229;BME280;7717;47.792;12.076;2023-02-16T04:25:06;97252.06;;;-4.16;nan
15229;BME280;7717;47.792;12.076;2023-02-16T04:27:31;97238.69;;;-4.28;nan
15229;BME280;7717;47.792;12.076;2023-02-16T04:29:57;97248.94;;;-4.37;nan
15229;BME280;7717;47.792;12.076;2023-02-16T04:32:22;97241.78;;;-4.32;nan
15229;BME280;7717;47.792;12.076;2023-02-16T04:34:47;97246.34;;;-4.39;nan
15229;BME280;7717;47.792;12.076;2023-02-16T04:37:13;97250.44;;;-4.27;nan
15229;BME280;7717;47.792;12.076;2023-02-16T04:39:39;97250.66;;;-4.24;nan
15229;BME280;7717;47.792;12.076;2023-02-16T04:42:04;97258.69;;;-4.17;nan
15229;BME280;7717;47.792;12.076;2023-02-16T04:44:30;97254.03;;;-4.24;nan
15229;BME280;7717;47.792;12.076;2023-02-16T04:46:55;97252.09;;;-4.28;nan
15229;BME280;7717;47.792;12.076;2023-02-16T04:49:20;97247.31;;;-4.25;nan
15229;BME280;7717;47.792;12.076;2023-02-16T04:51:46;97244.59;;;-4.28;nan
15229;BME280;7717;47.792;12.076;2023-02-16T04:54:11;97235.25;;;-4.42;nan
15229;BME280;7717;47.792;12.076;2023-02-16T04:56:36;97240.88;;;-4.33;nan
15229;BME280;7717;47.792;12.076;2023-02-16T04:59:02;97232.63;;;-4.32;nan
15229;BME280;7717;47.792;12.076;2023-02-16T05:01:28;97215.50;;;-4.51;nan
15229;BME280;7717;47.792;12.076;2023-02-16T05:03:53;97241.66;;;-4.46;nan
15229;BME280;7717;47.792;12.076;2023-02-16T05:06:19;97241.00;;;-4.31;nan
15229;BME280;7717;47.792;12.076;2023-02-16T05:08:45;97234.50;;;-4.29;nan
15229;BME280;7717;47.792;12.076;2023-02-16T05:11:11;97232.84;;;-4.29;nan
15229;BME280;7717;47.792;12.076;2023-02-16T05:13:56;97222.84;;;-4.29;nan
15229;BME280;7717;47.792;12.076;2023-02-16T05:16:40;97224.56;;;-4.16;nan
15229;BME280;7717;47.792;12.076;2023-02-16T05:19:05;97238.81;;;-4.15;nan
15229;BME280;7717;47.792;12.076;2023-02-16T05:21:30;97228.72;;;-4.28;nan
15229;BME280;7717;47.792;12.076;2023-02-16T05:23:57;97241.31;;;-4.27;nan
15229;BME280;7717;47.792;12.076;2023-02-16T05:26:23;97247.84;;;-4.17;nan
15229;BME280;7717;47.792;12.076;2023-02-16T05:28:48;97249.06;;;-3.87;nan
15229;BME280;7717;47.792;12.076;2023-02-16T05:31:13;97252.41;;;-3.86;nan
15229;BME280;7717;47.792;12.076;2023-02-16T05:33:39;97254.97;;;-3.98;nan
15229;BME280;7717;47.792;12.076;2023-02-16T05:36:04;97242.94;;;-4.16;nan
15229;BME280;7717;47.792;12.076;2023-02-16T05:38:30;97254.13;;;-4.22;nan
15229;BME280;7717;47.792;12.076;2023-02-16T05:40:55;97256.19;;;-4.17;nan
15229;BME280;7717;47.792;12.076;2023-02-16T05:43:21;97256.31;;;-4.15;nan
15229;BME280;7717;47.792;12.076;2023-02-16T05:45:46;97250.44;;;-4.27;nan
15229;BME280;7717;47.792;12.076;2023-02-16T05:48:11;97253.16;;;-4.24;nan
15229;BME280;7717;47.792;12.076;2023-02-16T05:50:37;97247.94;;;-4.27;nan
15229;BME280;7717;47.792;12.076;2023-02-16T05:53:02;97244.06;;;-4.47;nan
15229;BME280;7717;47.792;12.076;2023-02-16T05:55:27;97246.19;;;-4.28;nan
15229;BME280;7717;47.792;12.076;2023-02-16T05:57:53;97254.38;;;-4.31;nan
15229;BME280;7717;47.792;12.076;2023-02-16T06:00:18;97241.00;;;-4.31;nan
15229;BME280;7717;47.792;12.076;2023-02-16T06:02:44;97241.66;;;-4.34;nan
15229;BME280;7717;47.792;12.076;2023-02-16T06:05:09;97263.91;;;-4.25;nan
15229;BME280;7717;47.792;12.076;2023-02-16T06:07:34;97253.38;;;-4.21;nan
15229;BME280;7717;47.792;12.076;2023-02-16T06:10:00;97258.06;;;-4.14;nan
15229;BME280;7717;47.792;12.076;2023-02-16T06:12:25;97258.91;;;-4.25;nan
15229;BME280;7717;47.792;12.076;2023-02-16T06:14:50;97271.09;;;-4.18;nan
15229;BME280;7717;47.792;12.076;2023-02-16T06:17:16;97278.34;;;-3.98;nan
15229;BME280;7717;47.792;12.076;2023-02-16T06:19:41;97280.44;;;-4.27;nan
15229;BME280;7717;47.792;12.076;2023-02-16T06:22:06;97266.63;;;-4.22;nan
15229;BME280;7717;47.792;12.076;2023-02-16T06:24:32;97257.47;;;-4.10;nan
15229;BME280;7717;47.792;12.076;2023-02-16T06:26:57;97274.66;;;-4.14;nan
15229;BME280;7717;47.792;12.076;2023-02-16T06:29:23;97284.50;;;-3.92;nan
15229;BME280;7717;47.792;12.076;2023-02-16T06:31:51;97284.41;;;-3.94;nan
15229;BME280;7717;47.792;12.076;2023-02-16T06:34:17;97281.03;;;-3.94;nan
15229;BME280;7717;47.792;12.076;2023-02-16T06:36:42;97289.69;;;-3.66;nan
15229;BME280;7717;47.792;12.076;2023-02-16T06:39:07;97290.13;;;-3.71;nan
15229;BME280;7717;47.792;12.076;2023-02-16T06:41:33;97279.47;;;-3.69;nan
15229;BME280;7717;47.792;12.076;2023-02-16T06:44:10;97277.56;;;-3.59;nan
15229;BME280;7717;47.792;12.076;2023-02-16T06:46:40;97286.91;;;-3.45;nan
15229;BME280;7717;47.792;12.076;2023-02-16T06:49:06;97275.63;;;-3.13;nan
15229;BME280;7717;47.792;12.076;2023-02-16T06:51:31;97260.75;;;-2.98;nan
15229;BME280;7717;47.792;12.076;2023-02-16T06:53:57;97280.00;;;-2.97;nan
15229;BME280;7717;47.792;12.076;2023-02-16T06:56:22;97277.25;;;-2.75;nan
15229;BME280;7717;47.792;12.076;2023-02-16T06:58:48;97288.84;;;-2.64;nan
15229;BME280;7717;47.792;12.076;2023-02-16T07:01:14;97277.22;;;-2.50;nan
15229;BME280;7717;47.792;12.076;2023-02-16T07:03:39;97272.66;;;-2.56;nan
15229;BME280;7717;47.792;12.076;2023-02-16T07:06:05;97291.38;;;-2.10;nan
15229;BME280;7717;47.792;12.076;2023-02-16T07:08:30;97279.72;;;-2.23;nan
15229;BME280;7717;47.792;12.076;2023-02-16T07:10:56;97288.63;;;-1.87;nan
15229;BME280;7717;47.792;12.076;2023-02-16T07:13:21;97279.16;;;-1.77;nan
15229;BME280;7717;47.792;12.076;2023-02-16T07:15:47;97290.16;;;-1.75;nan
15229;BME280;7717;47.792;12.076;2023-02-16T07:18:12;97285.06;;;-1.49;nan
15229;BME280;7717;47.792;12.076;2023-02-16T07:20:37;97283.88;;;-1.40;nan
15229;BME280;7717;47.792;12.076;2023-02-16T07:23:03;97262.50;;;-1.19;nan
15229;BME280;7717;47.792;12.076;2023-02-16T07:25:28;97281.97;;;-0.86;nan
15229;BME280;7717;47.792;12.076;2023-02-16T07:27:54;97287.78;;;-0.73;nan
15229;BME280;7717;47.792;12.076;2023-02-16T07:30:19;97275.13;;;-0.74;nan
15229;BME280;7717;47.792;12.076;2023-02-16T07:32:45;97279.19;;;-0.61;nan
15229;BME280;7717;47.792;12.076;2023-02-16T07:35:11;97287.44;;;-0.34;nan
15229;BME280;7717;47.792;12.076;2023-02-16T07:37:36;97278.41;;;-0.30;nan
15229;BME280;7717;47.792;12.076;2023-02-16T07:40:02;97275.88;;;-0.15;nan
15229;BME280;7717;47.792;12.076;2023-02-16T07:42:32;97265.50;;;-0.05;nan
15229;BME280;7717;47.792;12.076;2023-02-16T07:44:58;97281.00;;;0.17;nan
15229;BME280;7717;47.792;12.076;2023-02-16T07:47:23;97280.63;;;0.43;nan
15229;BME280;7717;47.792;12.076;2023-02-16T07:49:49;97276.41;;;0.58;nan
15229;BME280;7717;47.792;12.076;2023-02-16T07:52:14;97289.63;;;0.70;nan
15229;BME280;7717;47.792;12.076;2023-02-16T07:54:39;97283.09;;;0.74;nan
15229;BME280;7717;47.792;12.076;2023-02-16T07:57:05;97283.59;;;1.01;nan
15229;BME280;7717;47.792;12.076;2023-02-16T07:59:30;97288.28;;;1.28;nan
15229;BME280;7717;47.792;12.076;2023-02-16T08:01:55;97274.78;;;1.44;nan
15229;BME280;7717;47.792;12.076;2023-02-16T08:04:21;97283.66;;;1.90;nan
15229;BME280;7717;47.792;12.076;2023-02-16T08:06:46;97276.75;;;1.86;nan
15229;BME280;7717;47.792;12.076;2023-02-16T08:09:13;97289.66;;;1.92;nan
15229;BME280;7717;47.792;12.076;2023-02-16T08:11:39;97292.69;;;2.03;nan
15229;BME280;7717;47.792;12.076;2023-02-16T08:14:05;97274.88;;;2.37;nan
15229;BME280;7717;47.792;12.076;2023-02-16T08:16:30;97261.91;;;3.08;nan
15229;BME280;7717;47.792;12.076;2023-02-16T08:18:56;97262.41;;;3.20;nan
15229;BME280;7717;47.792;12.076;2023-02-16T08:21:27;97277.56;;;3.60;nan
15229;BME280;7717;47.792;12.076;2023-02-16T08:23:55;97263.47;;;3.88;nan
15229;BME280;7717;47.792;12.076;2023-02-16T08:26:23;97249.28;;;4.61;nan
15229;BME280;7717;47.792;12.076;2023-02-16T08:28:49;97239.34;;;4.67;nan
15229;BME280;7717;47.792;12.076;2023-02-16T08:31:17;97236.25;;;5.26;nan
15229;BME280;7717;47.792;12.076;2023-02-16T08:33:43;97223.72;;;5.56;nan
15229;BME280;7717;47.792;12.076;2023-02-16T08:36:26;97207.09;;;5.95;nan
15229;BME280;7717;47.792;12.076;2023-02-16T08:38:54;97207.59;;;6.10;nan
15229;BME280;7717;47.792;12.076;2023-02-16T08:41:22;97206.88;;;6.15;nan
15229;BME280;7717;47.792;12.076;2023-02-16T08:43:49;97216.84;;;6.08;nan
15229;BME280;7717;47.792;12.076;2023-02-16T08:46:15;97222.84;;;6.10;nan
15229;BME280;7717;47.792;12.076;2023-02-16T08:48:41;97220.13;;;6.33;nan
15229;BME280;7717;47.792;12.076;2023-02-16T08:51:12;97205.44;;;6.55;nan
15229;BME280;7717;47.792;12.076;2023-02-16T08:53:37;97198.34;;;6.75;nan
15229;BME280;7717;47.792;12.076;2023-02-16T08:56:03;97225.78;;;6.85;nan
15229;BME280;7717;47.792;12.076;2023-02-16T08:58:29;97209.13;;;6.98;nan
15229;BME280;7717;47.792;12.076;2023-02-16T09:00:55;97176.72;;;7.24;nan
15229;BME280;7717;47.792;12.076;2023-02-16T09:03:21;97209.69;;;7.54;nan
15229;BME280;7717;47.792;12.076;2023-02-16T09:05:48;97188.06;;;7.75;nan
15229;BME280;7717;47.792;12.076;2023-02-16T09:08:14;97177.19;;;7.82;nan
15229;BME280;7717;47.792;12.076;2023-02-16T09:10:40;97177.47;;;7.95;nan
15229;BME280;7717;47.792;12.076;2023-02-16T09:13:05;97164.47;;;8.23;nan
15229;BME280;7717;47.792;12.076;2023-02-16T09:15:34;97226.53;;;8.63;nan
15229;BME280;7717;47.792;12.076;2023-02-16T09:18:00;97161.91;;;9.13;nan
15229;BME280;7717;47.792;12.076;2023-02-16T09:20:27;97107.94;;;10.88;nan
15229;BME280;7717;47.792;12.076;2023-02-16T09:22:53;97084.66;;;11.89;nan
15229;BME280;7717;47.792;12.076;2023-02-16T09:25:19;97095.25;;;13.02;nan
15229;BME280;7717;47.792;12.076;2023-02-16T09:27:46;97104.47;;;14.34;nan
15229;BME280;7717;47.792;12.076;2023-02-16T09:30:11;97013.06;;;12.66;nan
15229;BME280;7717;47.792;12.076;2023-02-16T09:32:37;97099.56;;;12.98;nan
15229;BME280;7717;47.792;12.076;2023-02-16T09:35:03;97153.56;;;13.27;nan
15229;BME280;7717;47.792;12.076;2023-02-16T09:37:29;97058.25;;;13.98;nan
15229;BME280;7717;47.792;12.076;2023-02-16T09:39:54;97115.47;;;14.70;nan
15229;BME280;7717;47.792;12.076;2023-02-16T09:42:27;97019.78;;;13.74;nan
15229;BME280;7717;47.792;12.076;2023-02-16T09:47:51;97033.16;;;15.52;nan
15229;BME280;7717;47.792;12.076;2023-02-16T09:50:24;96992.56;;;15.66;nan
15229;BME280;7717;47.792;12.076;2023-02-16T09:53:01;96987.66;;;16.16;nan
15229;BME280;7717;47.792;12.076;2023-02-16T09:56:34;96935.44;;;15.94;nan
15229;BME280;7717;47.792;12.076;2023-02-16T10:01:19;97026.81;;;14.94;nan
15229;BME280;7717;47.792;12.076;2023-02-16T10:03:59;97031.00;;;16.57;nan
15229;BME280;7717;47.792;12.076;2023-02-16T10:06:33;96929.31;;;16.58;nan
15229;BME280;7717;47.792;12.076;2023-02-16T10:09:26;96936.78;;;16.20;nan
15229;BME280;7717;47.792;12.076;2023-02-16T10:12:03;97030.72;;;15.35;nan
15229;BME280;7717;47.792;12.076;2023-02-16T10:14:43;96933.25;;;15.60;nan
15229;BME280;7717;47.792;12.076;2023-02-16T10:22:29;96991.91;;;15.47;nan
15229;BME280;7717;47.792;12.076;2023-02-16T10:25:00;97088.22;;;16.30;nan
15229;BME280;7717;47.792;12.076;2023-02-16T10:27:33;96961.31;;;17.50;nan
15229;BME280;7717;47.792;12.076;2023-02-16T10:30:01;97018.28;;;18.34;nan
15229;BME280;7717;47.792;12.076;2023-02-16T10:32:34;96800.41;;;20.21;nan
15229;BME280;7717;47.792;12.076;2023-02-16T10:35:15;96805.94;;;20.10;nan
15229;BME280;7717;47.792;12.076;2023-02-16T10:37:58;96929.47;;;18.64;nan
15229;BME280;7717;47.792;12.076;2023-02-16T10:41:11;96802.09;;;19.95;nan
15229;BME280;7717;47.792;12.076;2023-02-16T10:43:46;96829.88;;;21.23;nan
15229;BME280;7717;47.792;12.076;2023-02-16T10:46:21;96921.22;;;20.36;nan
15229;BME280;7717;47.792;12.076;2023-02-16T10:48:51;96922.47;;;19.66;nan
15229;BME280;7717;47.792;12.076;2023-02-16T10:51:18;97021.44;;;19.55;nan
15229;BME280;7717;47.792;12.076;2023-02-16T10:53:46;97027.97;;;19.37;nan
15229;BME280;7717;47.792;12.076;2023-02-16T10:56:33;96789.84;;;20.26;nan
15229;BME280;7717;47.792;12.076;2023-02-16T10:59:06;96884.91;;;20.33;nan
15229;BME280;7717;47.792;12.076;2023-02-16T11:01:36;96915.75;;;20.72;nan
15229;BME280;7717;47.792;12.076;2023-02-16T11:04:03;96963.47;;;20.73;nan
15229;BME280;7717;47.792;12.076;2023-02-16T11:06:28;96927.56;;;21.33;nan
15229;BME280;7717;47.792;12.076;2023-02-16T11:08:56;96945.22;;;21.97;nan
15229;BME280;7717;47.792;12.076;2023-02-16T11:11:28;96827.81;;;19.76;nan
15229;BME280;7717;47.792;12.076;2023-02-16T11:14:11;96961.47;;;20.24;nan
15229;BME280;7717;47.792;12.076;2023-02-16T11:16:43;97007.94;;;20.35;nan
15229;BME280;7717;47.792;12.076;2023-02-16T11:19:19;96844.09;;;20.10;nan
15229;BME280;7717;47.792;12.076;2023-02-16T11:21:51;96883.69;;;20.72;nan
15229;BME280;7717;47.792;12.076;2023-02-16T11:24:34;96846.63;;;19.23;nan
15229;BME280;7717;47.792;12.076;2023-02-16T11:27:06;96904.56;;;20.15;nan
15229;BME280;7717;47.792;12.076;2023-02-16T11:29:32;96901.13;;;21.44;nan
15229;BME280;7717;47.792;12.076;2023-02-16T11:31:58;96894.16;;;22.58;nan
15229;BME280;7717;47.792;12.076;2023-02-16T11:34:46;96846.38;;;22.78;nan
15229;BME280;7717;47.792;12.076;2023-02-16T11:37:28;96801.63;;;22.46;nan
15229;BME280;7717;47.792;12.076;2023-02-16T11:40:02;96834.28;;;21.90;nan
15229;BME280;7717;47.792;12.076;2023-02-16T11:42:39;96796.72;;;20.54;nan
15229;BME280;7717;47.792;12.076;2023-02-16T11:45:07;96863.47;;;20.53;nan
15229;BME280;7717;47.792;12.076;2023-02-16T11:47:35;96920.31;;;20.10;nan
15229;BME280;7717;47.792;12.076;2023-02-16T11:50:19;96783.91;;;19.67;nan
15229;BME280;7717;47.792;12.076;2023-02-16T11:52:46;96858.19;;;18.80;nan
15229;BME280;7717;47.792;12.076;2023-02-16T11:57:51;96876.00;;;18.94;nan
15229;BME280;7717;47.792;12.076;2023-02-16T12:00:20;96880.91;;;18.70;nan
15229;BME280;7717;47.792;12.076;2023-02-16T12:03:14;96824.34;;;17.41;nan
15229;BME280;7717;47.792;12.076;2023-02-16T12:08:32;96748.25;;;18.53;nan
15229;BME280;7717;47.792;12.076;2023-02-16T12:16:44;96902.47;;;16.66;nan
15229;BME280;7717;47.792;12.076;2023-02-16T12:21:57;96906.03;;;17.09;nan
15229;BME280;7717;47.792;12.076;2023-02-16T12:24:57;96773.28;;;18.21;nan
15229;BME280;7717;47.792;12.076;2023-02-16T12:27:34;96854.63;;;18.50;nan
15229;BME280;7717;47.792;12.076;2023-02-16T12:33:26;96839.19;;;17.31;nan
15229;BME280;7717;47.792;12.076;2023-02-16T12:36:16;96782.78;;;18.55;nan
15229;BME280;7717;47.792;12.076;2023-02-16T12:44:28;96686.16;;;23.74;nan
15229;BME280;7717;47.792;12.076;2023-02-16T12:47:00;96682.16;;;24.37;nan
15229;BME280;7717;47.792;12.076;2023-02-16T12:52:31;96616.91;;;21.73;nan
15229;BME280;7717;47.792;12.076;2023-02-16T12:57:50;96633.38;;;22.15;nan
15229;BME280;7717;47.792;12.076;2023-02-16T13:00:39;96584.59;;;23.31;nan
15229;BME280;7717;47.792;12.076;2023-02-16T13:03:36;96524.31;;;25.00;nan
15229;BME280;7717;47.792;12.076;2023-02-16T13:06:08;96636.75;;;22.77;nan
15229;BME280;7717;47.792;12.076;2023-02-16T13:08:41;96695.66;;;22.02;nan
15229;BME280;7717;47.792;12.076;2023-02-16T13:13:42;96761.69;;;20.39;nan
15229;BME280;7717;47.792;12.076;2023-02-16T13:18:55;96775.53;;;21.13;nan
15229;BME280;7717;47.792;12.076;2023-02-16T13:21:38;96620.50;;;21.06;nan
15229;BME280;7717;47.792;12.076;2023-02-16T13:24:19;96809.25;;;20.93;nan
15229;BME280;7717;47.792;12.076;2023-02-16T13:38:00;96564.59;;;24.00;nan
15229;BME280;7717;47.792;12.076;2023-02-16T13:40:56;96537.25;;;23.72;nan
15229;BME280;7717;47.792;12.076;2023-02-16T13:43:32;96615.31;;;24.47;nan
15229;BME280;7717;47.792;12.076;2023-02-16T13:45:59;96598.75;;;24.31;nan
15229;BME280;7717;47.792;12.076;2023-02-16T13:48:31;96565.47;;;22.75;nan
15229;BME280;7717;47.792;12.076;2023-02-16T13:51:05;96574.72;;;24.40;nan
15229;BME280;7717;47.792;12.076;2023-02-16T13:53:35;96563.47;;;22.99;nan
15229;BME280;7717;47.792;12.076;2023-02-16T13:58:37;96602.53;;;25.06;nan
15229;BME280;7717;47.792;12.076;2023-02-16T14:04:05;96689.31;;;20.99;nan
15229;BME280;7717;47.792;12.076;2023-02-16T14:06:39;96637.44;;;21.16;nan
15229;BME280;7717;47.792;12.076;2023-02-16T14:19:53;96522.13;;;23.27;nan
15229;BME280;7717;47.792;12.076;2023-02-16T14:28:05;96519.63;;;22.89;nan
15229;BME280;7717;47.792;12.076;2023-02-16T14:30:51;96511.34;;;22.04;nan
15229;BME280;7717;47.792;12.076;2023-02-16T14:33:20;96637.56;;;21.78;nan
15229;BME280;7717;47.792;12.076;2023-02-16T14:38:29;96601.91;;;20.71;nan
15229;BME280;7717;47.792;12.076;2023-02-16T14:40:58;96672.75;;;21.68;nan
15229;BME280;7717;47.792;12.076;2023-02-16T14:43:25;96619.09;;;19.77;nan
15229;BME280;7717;47.792;12.076;2023-02-16T14:46:06;96670.72;;;19.05;nan
15229;BME280;7717;47.792;12.076;2023-02-16T14:54:52;96616.56;;;20.01;nan
15229;BME280;7717;47.792;12.076;2023-02-16T14:57:34;96693.91;;;18.80;nan
15229;BME280;7717;47.792;12.076;2023-02-16T15:03:12;96636.34;;;21.00;nan
15229;BME280;7717;47.792;12.076;2023-02-16T15:05:39;96638.84;;;20.56;nan
15229;BME280;7717;47.792;12.076;2023-02-16T15:08:26;96594.28;;;20.89;nan
15229;BME280;7717;47.792;12.076;2023-02-16T15:11:00;96728.41;;;19.15;nan
15229;BME280;7717;47.792;12.076;2023-02-16T15:13:31;96775.22;;;17.39;nan
15229;BME280;7717;47.792;12.076;2023-02-16T15:16:02;96844.09;;;16.53;nan
15229;BME280;7717;47.792;12.076;2023-02-16T15:18:36;96802.88;;;15.95;nan
15229;BME280;7717;47.792;12.076;2023-02-16T15:21:03;96863.34;;;15.82;nan
15229;BME280;7717;47.792;12.076;2023-02-16T15:23:31;96889.75;;;15.31;nan
15229;BME280;7717;47.792;12.076;2023-02-16T15:26:04;96839.44;;;14.98;nan
15229;BME280;7717;47.792;12.076;2023-02-16T15:28:33;96900.59;;;14.86;nan
15229;BME280;7717;47.792;12.076;2023-02-16T15:31:05;96898.25;;;14.60;nan
15229;BME280;7717;47.792;12.076;2023-02-16T15:33:39;96901.72;;;14.51;nan
15229;BME280;7717;47.792;12.076;2023-02-16T15:36:05;96923.38;;;14.27;nan
15229;BME280;7717;47.792;12.076;2023-02-16T15:38:58;96908.22;;;13.79;nan